Terminal Aerodrome Forecast
Issued by NWS Mobile, AL

Home | Current Version | Previous Version | Text Only | Print | Product List | Glossary On
Versions: 1 2 3 4 5 6 7 8 9 10 11 12 13 14 15 16 17 18 19 20 21 22 23 24 25 26 27 28 29 30 31 32 33 34 35 36 37 38 39 40 41 42
000
FTUS44 KMOB 231100 RRA
TAFMOB
TAF
KMOB 231154Z 2312/2412 01004KT 4SM BR FEW060 SCT250
     FM231500 13006KT P6SM SCT030 SCT250
     FM231800 18008KT P6SM VCTS BKN030CB BKN250
      TEMPO 2320/2324 P6SM TS BKN030CB=

USA.gov is the U.S. government's official web portal to all federal, state and local government web resources and services.